sensor_id;sensor_type;location;lat;lon;timestamp;pressure;altitude;pressure_sealevel;temperature;humidity
43691;BME280;29293;52.190;21.226;2023-03-14T00:06:56;98825.25;;;8.08;100.00
43691;BME280;29293;52.190;21.226;2023-03-14T00:22:03;98808.17;;;7.74;100.00
43691;BME280;29293;52.190;21.226;2023-03-14T00:37:10;98789.83;;;7.53;100.00
43691;BME280;29293;52.190;21.226;2023-03-14T00:52:17;98768.80;;;7.31;100.00
43691;BME280;29293;52.190;21.226;2023-03-14T01:08:02;98734.42;;;7.09;100.00
43691;BME280;29293;52.190;21.226;2023-03-14T01:51:44;98704.86;;;6.79;100.00
43691;BME280;29293;52.190;21.226;2023-03-14T02:06:58;98703.30;;;6.57;100.00
43691;BME280;29293;52.190;21.226;2023-03-14T02:22:10;98688.69;;;6.31;100.00
43691;BME280;29293;52.190;21.226;2023-03-14T02:37:20;98668.44;;;6.05;100.00
43691;BME280;29293;52.190;21.226;2023-03-14T02:52:28;98634.51;;;5.70;100.00
43691;BME280;29293;52.190;21.226;2023-03-14T03:07:36;98626.92;;;5.44;100.00
43691;BME280;29293;52.190;21.226;2023-03-14T03:22:43;98620.37;;;5.40;100.00
43691;BME280;29293;52.190;21.226;2023-03-14T03:37:50;98620.17;;;5.42;100.00
43691;BME280;29293;52.190;21.226;2023-03-14T03:52:56;98604.38;;;5.30;100.00
43691;BME280;29293;52.190;21.226;2023-03-14T04:08:04;98595.46;;;5.22;100.00
43691;BME280;29293;52.190;21.226;2023-03-14T04:23:10;98586.08;;;5.30;100.00
43691;BME280;29293;52.190;21.226;2023-03-14T04:38:18;98598.42;;;5.27;100.00
43691;BME280;29293;52.190;21.226;2023-03-14T04:53:25;98607.45;;;5.13;100.00
43691;BME280;29293;52.190;21.226;2023-03-14T05:08:31;98572.16;;;5.03;100.00
43691;BME280;29293;52.190;21.226;2023-03-14T05:23:38;98550.42;;;5.19;100.00
43691;BME280;29293;52.190;21.226;2023-03-14T05:38:45;98522.52;;;5.47;100.00
43691;BME280;29293;52.190;21.226;2023-03-14T05:54:22;98528.23;;;5.74;100.00
43691;BME280;29293;52.190;21.226;2023-03-14T06:25:10;98465.30;;;6.44;100.00
43691;BME280;29293;52.190;21.226;2023-03-14T06:40:17;98452.17;;;7.35;100.00
43691;BME280;29293;52.190;21.226;2023-03-14T06:55:24;98447.54;;;7.69;100.00
43691;BME280;29293;52.190;21.226;2023-03-14T07:10:31;98438.93;;;7.96;100.00
43691;BME280;29293;52.190;21.226;2023-03-14T07:25:40;98433.84;;;8.65;100.00
43691;BME280;29293;52.190;21.226;2023-03-14T07:40:47;98428.17;;;9.21;100.00
43691;BME280;29293;52.190;21.226;2023-03-14T07:55:55;98455.77;;;9.65;100.00
43691;BME280;29293;52.190;21.226;2023-03-14T08:11:06;98438.66;;;10.77;100.00
43691;BME280;29293;52.190;21.226;2023-03-14T08:26:14;98438.52;;;11.73;100.00
43691;BME280;29293;52.190;21.226;2023-03-14T08:41:20;98434.95;;;12.66;100.00
43691;BME280;29293;52.190;21.226;2023-03-14T08:56:27;98445.91;;;13.01;100.00
43691;BME280;29293;52.190;21.226;2023-03-14T09:11:35;98438.84;;;13.66;100.00
43691;BME280;29293;52.190;21.226;2023-03-14T09:26:42;98428.55;;;13.77;100.00
43691;BME280;29293;52.190;21.226;2023-03-14T09:41:50;98398.23;;;13.98;100.00
43691;BME280;29293;52.190;21.226;2023-03-14T09:56:59;98378.40;;;14.00;100.00
43691;BME280;29293;52.190;21.226;2023-03-14T10:12:09;98348.92;;;14.67;100.00
43691;BME280;29293;52.190;21.226;2023-03-14T10:27:22;98345.40;;;15.34;100.00
43691;BME280;29293;52.190;21.226;2023-03-14T10:42:30;98331.33;;;15.27;100.00
43691;BME280;29293;52.190;21.226;2023-03-14T10:57:41;98323.88;;;15.47;100.00
43691;BME280;29293;52.190;21.226;2023-03-14T11:12:54;98326.11;;;15.16;100.00
43691;BME280;29293;52.190;21.226;2023-03-14T11:28:14;98342.27;;;14.30;100.00
43691;BME280;29293;52.190;21.226;2023-03-14T11:43:28;98346.14;;;14.43;100.00
43691;BME280;29293;52.190;21.226;2023-03-14T11:58:39;98314.69;;;15.26;100.00
43691;BME280;29293;52.190;21.226;2023-03-14T12:13:51;98321.66;;;14.99;100.00
43691;BME280;29293;52.190;21.226;2023-03-14T12:29:15;98323.13;;;14.53;100.00
43691;BME280;29293;52.190;21.226;2023-03-14T12:44:43;98326.52;;;14.81;100.00
43691;BME280;29293;52.190;21.226;2023-03-14T12:59:52;98325.85;;;14.60;100.00
43691;BME280;29293;52.190;21.226;2023-03-14T13:15:02;98332.39;;;14.23;100.00
43691;BME280;29293;52.190;21.226;2023-03-14T13:30:23;98356.85;;;13.59;100.00
43691;BME280;29293;52.190;21.226;2023-03-14T13:45:31;98382.71;;;12.78;100.00
43691;BME280;29293;52.190;21.226;2023-03-14T14:00:38;98387.61;;;11.94;100.00
43691;BME280;29293;52.190;21.226;2023-03-14T14:15:48;98397.25;;;11.39;100.00
43691;BME280;29293;52.190;21.226;2023-03-14T14:31:17;98386.51;;;10.88;100.00
43691;BME280;29293;52.190;21.226;2023-03-14T14:46:23;98371.91;;;10.46;100.00
43691;BME280;29293;52.190;21.226;2023-03-14T15:01:35;98359.11;;;10.07;100.00
43691;BME280;29293;52.190;21.226;2023-03-14T15:16:42;98343.93;;;9.77;100.00
43691;BME280;29293;52.190;21.226;2023-03-14T15:31:49;98378.95;;;9.62;100.00
43691;BME280;29293;52.190;21.226;2023-03-14T15:46:56;98397.02;;;9.51;100.00
43691;BME280;29293;52.190;21.226;2023-03-14T16:02:03;98385.34;;;9.42;100.00
43691;BME280;29293;52.190;21.226;2023-03-14T16:17:11;98406.05;;;9.32;100.00
43691;BME280;29293;52.190;21.226;2023-03-14T16:32:18;98414.21;;;9.23;100.00
43691;BME280;29293;52.190;21.226;2023-03-14T16:47:25;98418.29;;;9.16;100.00
43691;BME280;29293;52.190;21.226;2023-03-14T17:02:34;98428.07;;;9.08;100.00
43691;BME280;29293;52.190;21.226;2023-03-14T17:17:41;98416.79;;;9.08;100.00
43691;BME280;29293;52.190;21.226;2023-03-14T17:32:48;98422.72;;;9.02;100.00
43691;BME280;29293;52.190;21.226;2023-03-14T17:47:54;98423.55;;;8.98;100.00
43691;BME280;29293;52.190;21.226;2023-03-14T18:03:01;98426.79;;;8.92;100.00
43691;BME280;29293;52.190;21.226;2023-03-14T18:18:08;98446.14;;;8.93;100.00
43691;BME280;29293;52.190;21.226;2023-03-14T18:33:15;98448.05;;;8.95;100.00
43691;BME280;29293;52.190;21.226;2023-03-14T18:48:22;98453.08;;;8.96;100.00
43691;BME280;29293;52.190;21.226;2023-03-14T19:03:30;98455.06;;;8.89;100.00
43691;BME280;29293;52.190;21.226;2023-03-14T19:18:45;98471.91;;;8.64;100.00
43691;BME280;29293;52.190;21.226;2023-03-14T19:33:52;98472.23;;;8.44;100.00
43691;BME280;29293;52.190;21.226;2023-03-14T19:48:59;98473.16;;;8.37;100.00
43691;BME280;29293;52.190;21.226;2023-03-14T20:04:06;98475.80;;;8.23;100.00
43691;BME280;29293;52.190;21.226;2023-03-14T20:19:14;98473.68;;;8.05;100.00
43691;BME280;29293;52.190;21.226;2023-03-14T20:34:20;98485.09;;;7.83;100.00
43691;BME280;29293;52.190;21.226;2023-03-14T20:49:28;98492.54;;;7.59;100.00
43691;BME280;29293;52.190;21.226;2023-03-14T21:20:28;98498.17;;;7.07;100.00
43691;BME280;29293;52.190;21.226;2023-03-14T21:35:35;98499.27;;;6.81;100.00
43691;BME280;29293;52.190;21.226;2023-03-14T21:50:42;98502.90;;;6.58;100.00
43691;BME280;29293;52.190;21.226;2023-03-14T22:05:51;98511.48;;;6.38;100.00
43691;BME280;29293;52.190;21.226;2023-03-14T22:20:58;98519.30;;;6.35;100.00
43691;BME280;29293;52.190;21.226;2023-03-14T22:36:05;98523.92;;;6.59;100.00
43691;BME280;29293;52.190;21.226;2023-03-14T22:51:13;98528.11;;;6.88;100.00
43691;BME280;29293;52.190;21.226;2023-03-14T23:06:20;98530.70;;;7.12;100.00
43691;BME280;29293;52.190;21.226;2023-03-14T23:21:27;98536.03;;;7.29;100.00
43691;BME280;29293;52.190;21.226;2023-03-14T23:36:34;98559.05;;;7.39;100.00
43691;BME280;29293;52.190;21.226;2023-03-14T23:51:41;98584.05;;;7.43;100.00
